createdAt,value
2023-03-28T00:00:00.351Z,88.22
2023-03-28T00:01:00.434Z,88.16
2023-03-28T00:02:00.525Z,88.37
2023-03-28T00:03:00.588Z,88.47
2023-03-28T00:04:00.651Z,88.47
2023-03-28T00:05:00.719Z,88.37
2023-03-28T00:06:01.318Z,88.26
2023-03-28T00:07:00.890Z,88.16
2023-03-28T00:08:00.924Z,88.16
2023-03-28T00:09:01.010Z,88.22
2023-03-28T00:10:01.103Z,88.26
2023-03-28T00:11:01.246Z,88.26
2023-03-28T00:12:01.327Z,88.16
2023-03-28T00:13:01.356Z,88.37
2023-03-28T00:14:01.526Z,88.47
2023-03-28T00:15:01.517Z,88.68
2023-03-28T00:16:01.936Z,88.89
2023-03-28T00:17:01.746Z,88.99
2023-03-28T00:18:01.819Z,88.99
2023-03-28T00:19:01.844Z,88.89
2023-03-28T00:20:01.965Z,88.99
2023-03-28T00:21:01.987Z,88.99
2023-03-28T00:22:02.064Z,88.99
2023-03-28T00:23:02.122Z,88.89
2023-03-28T00:24:02.219Z,88.89
2023-03-28T00:25:02.316Z,88.93
2023-03-28T00:26:02.363Z,88.82
2023-03-28T00:27:02.487Z,88.72
2023-03-28T00:28:02.549Z,88.72
2023-03-28T00:29:02.662Z,88.93
2023-03-28T00:30:02.717Z,89.14
2023-03-28T00:31:02.890Z,89.24
2023-03-28T00:32:02.921Z,89.14
2023-03-28T00:33:03.020Z,89.14
2023-03-28T00:34:03.025Z,89.03
2023-03-28T00:35:03.097Z,89.07
2023-03-28T00:36:03.392Z,89.45
2023-03-28T00:37:03.295Z,89.59
2023-03-28T00:38:03.361Z,89.59
2023-03-28T00:39:03.449Z,89.59
2023-03-28T00:40:03.522Z,89.70
2023-03-28T00:41:03.572Z,89.70
2023-03-28T00:42:03.692Z,89.70
2023-03-28T00:43:03.759Z,90.12
2023-03-28T00:44:03.820Z,90.12
2023-03-28T00:45:03.906Z,90.12
2023-03-28T00:46:09.138Z,90.01
2023-03-28T00:47:04.119Z,89.81
2023-03-28T00:48:04.126Z,89.56
2023-03-28T00:49:04.204Z,89.39
2023-03-28T00:50:04.239Z,89.28
2023-03-28T00:51:04.328Z,89.18
2023-03-28T00:52:04.438Z,89.28
2023-03-28T00:53:04.508Z,89.39
2023-03-28T00:54:04.554Z,89.59
2023-03-28T00:55:04.640Z,89.59
2023-03-28T00:56:04.707Z,89.59
2023-03-28T00:57:04.868Z,89.91
2023-03-28T00:58:04.846Z,90.01
2023-03-28T00:59:04.923Z,89.91
2023-03-28T01:00:05.007Z,89.91
2023-03-28T01:01:05.099Z,90.22
2023-03-28T01:02:05.290Z,90.33
2023-03-28T01:03:05.331Z,90.43
2023-03-28T01:04:05.361Z,90.43
2023-03-28T01:05:05.413Z,90.58
2023-03-28T01:06:05.482Z,90.68
2023-03-28T01:07:05.579Z,90.78
2023-03-28T01:08:05.609Z,91.00
2023-03-28T01:09:05.701Z,91.37
2023-03-28T01:10:05.785Z,91.69
2023-03-28T01:11:05.880Z,91.79
2023-03-28T01:12:05.988Z,91.69
2023-03-28T01:13:06.060Z,91.62
2023-03-28T01:14:06.132Z,91.52
2023-03-28T01:15:06.244Z,91.52
2023-03-28T01:16:06.335Z,91.72
2023-03-28T01:17:06.414Z,91.72
2023-03-28T01:18:06.505Z,91.83
2023-03-28T01:19:06.530Z,91.94
2023-03-28T01:20:06.611Z,91.94
2023-03-28T01:21:06.707Z,92.04
2023-03-28T01:22:06.823Z,92.14
2023-03-28T01:23:06.886Z,92.14
2023-03-28T01:24:11.590Z,92.46
2023-03-28T01:25:07.068Z,92.56
2023-03-28T01:26:07.136Z,92.66
2023-03-28T01:27:07.254Z,92.77
2023-03-28T01:28:07.288Z,92.77
2023-03-28T01:29:07.382Z,92.66
2023-03-28T01:30:07.533Z,92.66
2023-03-28T01:31:07.606Z,92.56
2023-03-28T01:32:07.642Z,92.46
2023-03-28T01:33:07.744Z,92.25
2023-03-28T01:34:07.812Z,92.04
2023-03-28T01:35:07.902Z,91.87
2023-03-28T01:36:08.063Z,91.87
2023-03-28T01:37:08.104Z,91.77
2023-03-28T01:38:08.167Z,91.87
2023-03-28T01:39:08.248Z,91.98
2023-03-28T01:40:08.335Z,92.19
2023-03-28T01:41:08.432Z,92.08
2023-03-28T01:42:08.516Z,92.29
2023-03-28T01:43:08.566Z,92.29
2023-03-28T01:44:08.628Z,92.40
2023-03-28T01:45:08.724Z,92.40
2023-03-28T01:46:08.860Z,92.29
2023-03-28T01:47:08.932Z,92.29
2023-03-28T01:48:08.974Z,92.19
2023-03-28T01:49:09.067Z,92.08
2023-03-28T01:50:09.141Z,92.08
2023-03-28T01:51:09.229Z,92.08
2023-03-28T01:52:09.319Z,92.08
2023-03-28T01:53:09.367Z,92.19
2023-03-28T01:54:09.444Z,92.40
2023-03-28T01:55:09.527Z,92.40
2023-03-28T01:56:09.600Z,92.40
2023-03-28T01:57:09.758Z,92.40
2023-03-28T01:58:09.766Z,92.29
2023-03-28T01:59:09.863Z,92.29
2023-03-28T02:00:09.940Z,92.23
2023-03-28T02:01:10.053Z,92.33
2023-03-28T02:02:10.142Z,92.29
2023-03-28T02:03:10.307Z,92.23
2023-03-28T02:04:20.350Z,92.23
2023-03-28T02:05:10.338Z,92.23
2023-03-28T02:06:10.432Z,92.33
2023-03-28T02:07:10.529Z,92.33
2023-03-28T02:08:10.578Z,92.50
2023-03-28T02:09:10.633Z,92.50
2023-03-28T02:10:10.716Z,92.60
2023-03-28T02:11:10.782Z,92.50
2023-03-28T02:12:10.899Z,92.40
2023-03-28T02:13:10.952Z,92.44
2023-03-28T02:14:11.041Z,92.33
2023-03-28T02:15:11.115Z,92.33
2023-03-28T02:16:11.260Z,92.23
2023-03-28T02:17:11.290Z,92.40
2023-03-28T02:18:11.373Z,92.50
2023-03-28T02:19:11.433Z,92.44
2023-03-28T02:20:11.542Z,92.54
2023-03-28T02:21:11.598Z,92.44
2023-03-28T02:22:11.759Z,92.33
2023-03-28T02:23:11.806Z,92.23
2023-03-28T02:24:11.876Z,92.23
2023-03-28T02:25:11.959Z,92.23
2023-03-28T02:26:12.063Z,92.23
2023-03-28T02:27:12.140Z,92.33
2023-03-28T02:28:12.228Z,92.54
2023-03-28T02:29:12.305Z,92.65
2023-03-28T02:30:12.411Z,92.65
2023-03-28T02:31:12.509Z,92.65
2023-03-28T02:32:12.572Z,92.54
2023-03-28T02:33:12.644Z,92.65
2023-03-28T02:34:12.726Z,92.75
2023-03-28T02:35:12.809Z,92.75
2023-03-28T02:36:12.901Z,92.75
2023-03-28T02:37:12.999Z,92.65
2023-03-28T02:38:13.157Z,92.65
2023-03-28T02:39:13.137Z,92.96
2023-03-28T02:40:13.229Z,92.96
2023-03-28T02:41:13.312Z,92.96
2023-03-28T02:42:13.432Z,92.96
2023-03-28T02:43:13.474Z,93.07
2023-03-28T02:44:13.568Z,92.96
2023-03-28T02:45:13.655Z,92.96
2023-03-28T02:46:13.808Z,92.85
2023-03-28T02:47:13.820Z,92.75
2023-03-28T02:48:13.870Z,92.69
2023-03-28T02:49:13.961Z,92.69
2023-03-28T02:50:14.049Z,92.58
2023-03-28T02:51:14.132Z,92.69
2023-03-28T02:52:14.219Z,92.69
2023-03-28T02:53:14.328Z,92.79
2023-03-28T02:54:14.412Z,92.79
2023-03-28T02:55:14.495Z,92.79
2023-03-28T02:56:14.582Z,92.69
2023-03-28T02:57:14.753Z,92.58
2023-03-28T02:58:14.739Z,92.58
2023-03-28T02:59:14.839Z,92.58
2023-03-28T03:00:14.925Z,92.58
2023-03-28T03:01:15.021Z,92.48
2023-03-28T03:02:15.146Z,92.38
2023-03-28T03:03:15.175Z,92.27
2023-03-28T03:04:15.245Z,92.27
2023-03-28T03:05:15.328Z,92.27
2023-03-28T03:06:15.411Z,92.27
2023-03-28T03:07:15.526Z,92.27
2023-03-28T03:08:15.590Z,92.27
2023-03-28T03:09:15.679Z,92.38
2023-03-28T03:10:15.745Z,92.27
2023-03-28T03:11:15.868Z,92.27
2023-03-28T03:12:15.928Z,92.27
2023-03-28T03:13:15.991Z,92.27
2023-03-28T03:14:16.084Z,92.38
2023-03-28T03:15:16.174Z,92.27
2023-03-28T03:16:16.380Z,92.16
2023-03-28T03:17:16.415Z,92.16
2023-03-28T03:18:16.452Z,92.06
2023-03-28T03:19:16.556Z,91.96
2023-03-28T03:20:16.645Z,91.96
2023-03-28T03:21:16.758Z,91.96
2023-03-28T03:22:21.272Z,91.85
2023-03-28T03:23:16.906Z,91.96
2023-03-28T03:24:16.998Z,91.85
2023-03-28T03:25:17.090Z,92.06
2023-03-28T03:26:17.156Z,91.96
2023-03-28T03:27:17.270Z,92.06
2023-03-28T03:28:17.309Z,91.96
2023-03-28T03:29:17.400Z,91.96
2023-03-28T03:30:17.477Z,91.85
2023-03-28T03:31:17.645Z,91.75
2023-03-28T03:32:17.662Z,91.75
2023-03-28T03:33:17.779Z,91.75
2023-03-28T03:34:17.874Z,91.64
2023-03-28T03:35:17.956Z,91.64
2023-03-28T03:36:18.016Z,91.54
2023-03-28T03:37:18.126Z,91.54
2023-03-28T03:38:18.204Z,91.54
2023-03-28T03:39:18.327Z,91.43
2023-03-28T03:40:18.392Z,91.43
2023-03-28T03:41:18.459Z,91.33
2023-03-28T03:42:18.577Z,91.33
2023-03-28T03:43:18.629Z,91.33
2023-03-28T03:44:18.716Z,91.22
2023-03-28T03:45:18.806Z,91.33
2023-03-28T03:46:18.917Z,91.33
2023-03-28T03:47:18.976Z,91.43
2023-03-28T03:48:19.036Z,91.43
2023-03-28T03:49:19.116Z,91.54
2023-03-28T03:50:19.199Z,91.54
2023-03-28T03:51:19.291Z,91.43
2023-03-28T03:52:19.405Z,91.33
2023-03-28T03:53:19.456Z,91.33
2023-03-28T03:54:19.531Z,91.33
2023-03-28T03:55:19.631Z,91.50
2023-03-28T03:56:19.690Z,91.50
2023-03-28T03:57:19.898Z,91.60
2023-03-28T03:58:20.384Z,91.60
2023-03-28T03:59:19.968Z,91.50
2023-03-28T04:00:20.026Z,91.50
2023-03-28T04:01:20.114Z,91.50
2023-03-28T04:02:20.284Z,91.60
2023-03-28T04:03:24.300Z,91.60
2023-03-28T04:04:20.365Z,91.60
2023-03-28T04:05:20.610Z,91.50
2023-03-28T04:06:20.500Z,91.54
2023-03-28T04:07:20.609Z,91.33
2023-03-28T04:08:20.650Z,91.33
2023-03-28T04:09:20.760Z,91.43
2023-03-28T04:10:20.827Z,91.33
2023-03-28T04:11:20.926Z,91.33
2023-03-28T04:12:21.023Z,91.22
2023-03-28T04:13:21.121Z,91.12
2023-03-28T04:14:21.198Z,91.22
2023-03-28T04:15:21.297Z,91.22
2023-03-28T04:16:21.395Z,91.33
2023-03-28T04:17:21.480Z,91.33
2023-03-28T04:18:21.533Z,91.22
2023-03-28T04:19:21.950Z,91.02
2023-03-28T04:20:21.708Z,91.02
2023-03-28T04:21:21.798Z,90.91
2023-03-28T04:22:21.928Z,90.91
2023-03-28T04:23:21.971Z,90.91
2023-03-28T04:24:22.063Z,90.81
2023-03-28T04:25:22.158Z,90.81
2023-03-28T04:26:22.223Z,90.74
2023-03-28T04:27:22.336Z,90.74
2023-03-28T04:28:22.389Z,90.84
2023-03-28T04:29:22.494Z,90.95
2023-03-28T04:30:22.553Z,91.06
2023-03-28T04:31:22.655Z,91.16
2023-03-28T04:32:22.713Z,91.16
2023-03-28T04:33:22.771Z,91.27
2023-03-28T04:34:22.855Z,91.37
2023-03-28T04:35:23.002Z,91.37
2023-03-28T04:36:23.021Z,91.47
2023-03-28T04:37:23.141Z,91.69
2023-03-28T04:38:23.184Z,91.69
2023-03-28T04:39:23.273Z,91.79
2023-03-28T04:40:24.748Z,91.69
2023-03-28T04:41:23.484Z,91.69
2023-03-28T04:42:23.541Z,91.69
2023-03-28T04:43:23.607Z,91.69
2023-03-28T04:44:23.686Z,91.79
2023-03-28T04:45:23.780Z,91.89
2023-03-28T04:46:23.982Z,91.89
2023-03-28T04:47:23.994Z,91.79
2023-03-28T04:48:23.989Z,91.69
2023-03-28T04:49:24.088Z,91.69
2023-03-28T04:50:24.156Z,91.69
2023-03-28T04:51:24.260Z,91.47
2023-03-28T04:52:24.353Z,91.37
2023-03-28T04:53:24.420Z,91.37
2023-03-28T04:54:24.506Z,91.47
2023-03-28T04:55:24.619Z,91.37
2023-03-28T04:56:24.693Z,91.58
2023-03-28T04:57:24.827Z,91.64
2023-03-28T04:58:24.886Z,91.64
2023-03-28T04:59:24.982Z,91.75
2023-03-28T05:00:25.043Z,91.79
2023-03-28T05:01:25.209Z,91.79
2023-03-28T05:02:25.314Z,91.79
2023-03-28T05:03:25.500Z,91.89
2023-03-28T05:04:25.357Z,91.89
2023-03-28T05:05:25.442Z,91.58
2023-03-28T05:06:25.525Z,91.62
2023-03-28T05:07:25.648Z,91.69
2023-03-28T05:08:25.702Z,91.69
2023-03-28T05:09:25.768Z,91.69
2023-03-28T05:10:25.826Z,91.69
2023-03-28T05:11:25.923Z,91.62
2023-03-28T05:12:26.026Z,91.58
2023-03-28T05:13:26.092Z,91.62
2023-03-28T05:14:26.162Z,91.58
2023-03-28T05:15:26.263Z,91.47
2023-03-28T05:16:26.291Z,91.41
2023-03-28T05:17:26.435Z,91.52
2023-03-28T05:18:26.472Z,91.52
2023-03-28T05:19:26.534Z,91.52
2023-03-28T05:20:26.596Z,91.52
2023-03-28T05:21:26.703Z,91.52
2023-03-28T05:22:26.785Z,91.62
2023-03-28T05:23:26.907Z,91.83
2023-03-28T05:24:26.956Z,92.00
2023-03-28T05:25:27.044Z,92.04
2023-03-28T05:26:27.102Z,92.04
2023-03-28T05:27:27.235Z,92.21
2023-03-28T05:28:27.268Z,92.25
2023-03-28T05:29:27.372Z,92.14
2023-03-28T05:30:27.449Z,92.25
2023-03-28T05:31:27.583Z,92.04
2023-03-28T05:32:28.431Z,92.04
2023-03-28T05:33:27.696Z,92.25
2023-03-28T05:34:27.781Z,92.21
2023-03-28T05:35:27.896Z,92.21
2023-03-28T05:36:27.955Z,92.21
2023-03-28T05:37:28.666Z,92.04
2023-03-28T05:38:28.108Z,92.04
2023-03-28T05:39:28.214Z,92.21
2023-03-28T05:40:28.306Z,91.89
2023-03-28T05:41:28.386Z,91.31
2023-03-28T05:42:28.483Z,91.20
2023-03-28T05:43:28.543Z,91.52
2023-03-28T05:44:28.600Z,91.72
2023-03-28T05:45:28.715Z,91.83
2023-03-28T05:46:28.768Z,91.94
2023-03-28T05:47:28.901Z,92.04
2023-03-28T05:48:28.922Z,92.00
2023-03-28T05:49:29.022Z,91.89
2023-03-28T05:50:29.081Z,91.79
2023-03-28T05:51:29.193Z,91.75
2023-03-28T05:52:29.294Z,91.54
2023-03-28T05:53:29.375Z,91.54
2023-03-28T05:54:29.458Z,91.43
2023-03-28T05:55:29.568Z,91.33
2023-03-28T05:56:29.642Z,91.22
2023-03-28T05:57:29.752Z,91.12
2023-03-28T05:58:29.829Z,91.12
2023-03-28T05:59:29.894Z,91.02
2023-03-28T06:00:29.968Z,90.91
2023-03-28T06:01:30.047Z,90.91
2023-03-28T06:02:30.162Z,90.91
2023-03-28T06:03:30.256Z,90.81
2023-03-28T06:04:30.344Z,90.70
2023-03-28T06:05:30.387Z,90.66
2023-03-28T06:06:30.449Z,90.77
2023-03-28T06:07:41.479Z,90.87
2023-03-28T06:08:30.607Z,90.83
2023-03-28T06:09:30.686Z,90.93
2023-03-28T06:10:30.751Z,90.93
2023-03-28T06:11:30.823Z,91.03
2023-03-28T06:12:30.895Z,91.03
2023-03-28T06:13:30.957Z,90.93
2023-03-28T06:14:31.029Z,90.93
2023-03-28T06:15:31.133Z,90.78
2023-03-28T06:16:31.479Z,90.78
2023-03-28T06:17:31.307Z,90.78
2023-03-28T06:18:31.349Z,90.58
2023-03-28T06:19:31.406Z,90.47
2023-03-28T06:20:31.503Z,90.47
2023-03-28T06:21:31.601Z,90.64
2023-03-28T06:22:31.732Z,90.75
2023-03-28T06:23:31.771Z,90.75
2023-03-28T06:24:31.891Z,90.64
2023-03-28T06:25:31.967Z,90.53
2023-03-28T06:26:32.014Z,90.43
2023-03-28T06:27:32.114Z,90.43
2023-03-28T06:28:32.208Z,90.28
2023-03-28T06:29:32.276Z,90.18
2023-03-28T06:30:32.375Z,89.97
2023-03-28T06:31:32.459Z,89.76
2023-03-28T06:32:32.587Z,89.66
2023-03-28T06:33:32.581Z,89.66
2023-03-28T06:34:32.656Z,89.51
2023-03-28T06:35:32.746Z,89.41
2023-03-28T06:36:32.809Z,89.31
2023-03-28T06:37:32.904Z,89.20
2023-03-28T06:38:33.025Z,88.95
2023-03-28T06:39:33.057Z,88.75
2023-03-28T06:40:33.110Z,88.64
2023-03-28T06:41:33.168Z,88.43
2023-03-28T06:42:33.328Z,88.18
2023-03-28T06:43:33.322Z,88.08
2023-03-28T06:44:33.419Z,87.83
2023-03-28T06:45:33.477Z,87.52
2023-03-28T06:46:33.618Z,87.12
2023-03-28T06:47:33.663Z,85.57
2023-03-28T06:48:35.747Z,82.06
2023-03-28T06:49:33.836Z,78.67
2023-03-28T06:50:33.925Z,75.74
2023-03-28T06:51:33.987Z,71.92
2023-03-28T06:52:34.100Z,69.90
2023-03-28T06:53:34.160Z,68.50
2023-03-28T06:54:34.345Z,66.17
2023-03-28T06:55:34.317Z,63.85
2023-03-28T06:56:34.406Z,61.82
2023-03-28T06:57:34.504Z,60.42
2023-03-28T06:58:34.561Z,60.10
2023-03-28T06:59:34.666Z,59.39
2023-03-28T07:00:34.704Z,58.52
2023-03-28T07:01:34.811Z,56.63
2023-03-28T07:02:34.942Z,55.35
2023-03-28T07:03:34.956Z,54.69
2023-03-28T07:04:35.054Z,53.63
2023-03-28T07:05:35.085Z,52.15
2023-03-28T07:06:35.170Z,50.81
2023-03-28T07:07:35.300Z,49.64
2023-03-28T07:08:35.313Z,48.10
2023-03-28T07:09:35.370Z,47.67
2023-03-28T07:10:35.470Z,46.94
2023-03-28T07:11:35.566Z,46.41
2023-03-28T07:12:35.705Z,45.51
2023-03-28T07:13:35.742Z,46.61
2023-03-28T07:14:35.857Z,46.28
2023-03-28T07:15:35.908Z,45.75
2023-03-28T07:16:36.081Z,45.53
2023-03-28T07:17:36.096Z,44.42
2023-03-28T07:18:36.153Z,44.09
2023-03-28T07:19:36.240Z,43.77
2023-03-28T07:20:36.333Z,43.63
2023-03-28T07:21:36.393Z,42.38
2023-03-28T07:22:36.514Z,42.86
2023-03-28T07:23:36.556Z,41.55
2023-03-28T07:24:36.643Z,40.96
2023-03-28T07:25:36.719Z,41.56
2023-03-28T07:26:36.838Z,41.97
2023-03-28T07:27:36.903Z,40.17
2023-03-28T07:28:37.036Z,43.04
2023-03-28T07:29:37.068Z,43.10
2023-03-28T07:30:37.167Z,42.18
2023-03-28T07:31:37.273Z,41.97
2023-03-28T07:32:50.398Z,41.83
2023-03-28T07:33:38.190Z,41.13
2023-03-28T07:34:37.489Z,41.33
2023-03-28T07:35:37.565Z,39.83
2023-03-28T07:36:37.640Z,41.35
2023-03-28T07:37:37.748Z,41.73
2023-03-28T07:38:37.796Z,41.41
2023-03-28T07:39:37.870Z,40.18
2023-03-28T07:40:37.968Z,40.10
2023-03-28T07:41:38.054Z,40.64
2023-03-28T07:42:38.139Z,41.55
2023-03-28T07:43:38.194Z,40.56
2023-03-28T07:44:40.335Z,41.27
2023-03-28T07:45:38.369Z,41.10
2023-03-28T07:46:38.413Z,42.52
2023-03-28T07:47:38.589Z,41.24
2023-03-28T07:48:38.587Z,42.74
2023-03-28T07:49:38.635Z,44.03
2023-03-28T07:50:38.724Z,41.63
2023-03-28T07:51:38.845Z,40.82
2023-03-28T07:52:38.917Z,40.19
2023-03-28T07:53:38.971Z,42.47
2023-03-28T07:54:39.032Z,40.72
2023-03-28T07:56:40.893Z,38.83
2023-03-28T07:57:39.291Z,39.08
2023-03-28T07:58:39.334Z,38.96
2023-03-28T07:59:39.417Z,39.54
2023-03-28T08:00:39.510Z,37.52
2023-03-28T08:01:39.585Z,37.38
2023-03-28T08:02:42.497Z,37.87
2023-03-28T08:03:39.839Z,36.38
2023-03-28T08:04:39.830Z,36.11
2023-03-28T08:05:39.981Z,35.33
2023-03-28T08:06:39.992Z,35.16
2023-03-28T08:07:40.087Z,36.35
2023-03-28T08:08:40.145Z,35.25
2023-03-28T08:09:40.231Z,36.11
2023-03-28T08:10:40.319Z,37.88
2023-03-28T08:11:40.403Z,39.72
2023-03-28T08:12:40.510Z,40.08
2023-03-28T08:13:40.552Z,38.07
2023-03-28T08:14:40.662Z,37.12
2023-03-28T08:15:40.748Z,36.90
2023-03-28T08:16:40.819Z,37.37
2023-03-28T08:17:40.956Z,36.65
2023-03-28T08:18:40.995Z,35.93
2023-03-28T08:19:41.095Z,33.89
2023-03-28T08:20:41.177Z,34.17
2023-03-28T08:21:41.258Z,34.55
2023-03-28T08:22:41.372Z,34.73
2023-03-28T08:23:41.421Z,32.54
2023-03-28T08:24:41.517Z,33.36
2023-03-28T08:25:41.596Z,32.74
2023-03-28T08:26:41.691Z,33.14
2023-03-28T08:27:41.781Z,32.35
2023-03-28T08:28:41.862Z,34.57
2023-03-28T08:29:41.937Z,38.08
2023-03-28T08:30:42.025Z,38.23
2023-03-28T08:31:42.145Z,35.77
2023-03-28T08:32:42.234Z,34.22
2023-03-28T08:33:42.250Z,33.34
2023-03-28T08:34:42.323Z,35.53
2023-03-28T08:35:42.468Z,34.31
2023-03-28T08:36:42.488Z,34.19
2023-03-28T08:37:42.573Z,32.26
2023-03-28T08:38:42.646Z,31.77
2023-03-28T08:39:42.785Z,33.36
2023-03-28T08:40:42.824Z,32.74
2023-03-28T08:41:42.902Z,32.43
2023-03-28T08:42:43.018Z,30.99
2023-03-28T08:43:43.049Z,31.81
2023-03-28T08:44:43.131Z,31.21
2023-03-28T08:45:43.210Z,30.93
2023-03-28T08:46:43.375Z,31.12
2023-03-28T08:47:43.438Z,32.24
2023-03-28T08:48:43.456Z,31.85
2023-03-28T08:49:43.519Z,30.76
2023-03-28T08:50:43.830Z,31.05
2023-03-28T08:51:43.661Z,32.14
2023-03-28T08:52:43.795Z,30.10
2023-03-28T08:53:43.838Z,32.46
2023-03-28T08:54:43.909Z,33.07
2023-03-28T08:55:43.986Z,33.55
2023-03-28T08:56:45.060Z,32.65
2023-03-28T08:57:44.168Z,30.65
2023-03-28T08:58:44.240Z,32.09
2023-03-28T08:59:44.334Z,33.53
2023-03-28T09:00:44.411Z,33.06
2023-03-28T09:01:44.541Z,34.15
2023-03-28T09:02:44.776Z,36.68
2023-03-28T09:03:44.780Z,38.10
2023-03-28T09:04:44.756Z,38.68
2023-03-28T09:05:44.845Z,37.67
2023-03-28T09:06:45.275Z,38.64
2023-03-28T09:07:45.012Z,39.13
2023-03-28T09:08:45.082Z,38.57
2023-03-28T09:09:45.157Z,37.23
2023-03-28T09:10:45.252Z,36.51
2023-03-28T09:11:45.319Z,37.05
2023-03-28T09:12:45.446Z,36.78
2023-03-28T09:13:45.483Z,37.59
2023-03-28T09:14:45.594Z,38.87
2023-03-28T09:15:45.643Z,36.91
2023-03-28T09:16:45.775Z,36.27
2023-03-28T09:17:45.864Z,35.53
2023-03-28T09:18:45.925Z,34.79
2023-03-28T09:19:48.879Z,34.44
2023-03-28T09:20:46.129Z,32.78
2023-03-28T09:21:46.158Z,32.73
2023-03-28T09:22:46.261Z,31.92
2023-03-28T09:23:46.286Z,31.29
2023-03-28T09:24:46.373Z,31.14
2023-03-28T09:25:46.467Z,29.74
2023-03-28T09:26:46.553Z,31.14
2023-03-28T09:27:46.653Z,29.35
2023-03-28T09:28:46.711Z,31.35
2023-03-28T09:29:46.781Z,31.38
2023-03-28T09:30:46.863Z,30.10
2023-03-28T09:31:47.011Z,29.29
2023-03-28T09:32:47.067Z,30.57
2023-03-28T09:33:47.133Z,28.13
2023-03-28T09:34:47.207Z,31.60
2023-03-28T09:35:47.309Z,30.79
2023-03-28T09:36:49.807Z,31.77
2023-03-28T09:37:47.448Z,32.61
2023-03-28T09:38:47.521Z,30.93
2023-03-28T09:39:47.592Z,32.54
2023-03-28T09:40:47.678Z,31.22
2023-03-28T09:41:47.749Z,29.94
2023-03-28T09:42:47.847Z,33.64
2023-03-28T09:43:47.913Z,35.19
2023-03-28T09:44:54.822Z,36.85
2023-03-28T09:45:48.102Z,37.10
2023-03-28T09:46:48.174Z,38.29
2023-03-28T09:47:48.328Z,41.61
2023-03-28T09:48:48.555Z,39.51
2023-03-28T09:49:49.573Z,38.59
2023-03-28T09:50:48.482Z,38.70
2023-03-28T09:51:48.549Z,39.75
2023-03-28T09:52:48.644Z,36.66
2023-03-28T09:53:48.725Z,40.17
2023-03-28T09:54:48.800Z,39.95
2023-03-28T09:55:57.971Z,37.98
2023-03-28T09:56:48.972Z,36.22
2023-03-28T09:57:49.052Z,36.61
2023-03-28T09:58:49.146Z,36.19
2023-03-28T09:59:49.213Z,35.36
2023-03-28T10:00:49.290Z,34.36
2023-03-28T10:01:49.386Z,34.99
2023-03-28T10:02:49.517Z,35.19
2023-03-28T10:03:49.524Z,34.61
2023-03-28T10:04:49.648Z,36.04
2023-03-28T10:05:49.665Z,36.22
2023-03-28T10:06:49.750Z,35.83
2023-03-28T10:07:49.845Z,36.05
2023-03-28T10:08:49.924Z,36.66
2023-03-28T10:09:50.034Z,37.39
2023-03-28T10:10:50.076Z,36.58
2023-03-28T10:11:50.150Z,36.87
2023-03-28T10:12:50.246Z,36.66
2023-03-28T10:13:50.303Z,36.34
2023-03-28T10:14:50.386Z,36.73
2023-03-28T10:15:50.577Z,36.93
2023-03-28T10:16:50.553Z,36.61
2023-03-28T10:17:50.685Z,35.70
2023-03-28T10:18:50.700Z,36.54
2023-03-28T10:19:50.777Z,36.07
2023-03-28T10:20:50.844Z,36.27
2023-03-28T10:21:50.912Z,37.71
2023-03-28T10:22:51.005Z,36.90
2023-03-28T10:23:51.086Z,36.60
2023-03-28T10:24:51.155Z,36.39
2023-03-28T10:25:51.236Z,37.71
2023-03-28T10:26:51.314Z,38.32
2023-03-28T10:27:51.413Z,37.82
2023-03-28T10:28:51.478Z,37.61
2023-03-28T10:29:51.549Z,37.73
2023-03-28T10:30:51.696Z,37.65
2023-03-28T10:31:51.708Z,37.77
2023-03-28T10:32:51.828Z,38.70
2023-03-28T10:33:51.870Z,38.21
2023-03-28T10:34:51.930Z,39.45
2023-03-28T10:35:52.080Z,41.28
2023-03-28T10:36:52.071Z,41.80
2023-03-28T10:37:52.236Z,39.55
2023-03-28T10:38:52.262Z,39.45
2023-03-28T10:39:52.374Z,38.43
2023-03-28T10:40:52.553Z,38.84
2023-03-28T10:41:52.567Z,38.23
2023-03-28T10:42:52.624Z,39.37
2023-03-28T10:43:52.717Z,39.30
2023-03-28T10:44:52.773Z,39.75
2023-03-28T10:45:52.873Z,40.19
2023-03-28T10:46:53.016Z,41.83
2023-03-28T10:47:53.114Z,43.76
2023-03-28T10:48:53.117Z,43.94
2023-03-28T10:49:53.218Z,44.22
2023-03-28T10:50:53.273Z,43.79
2023-03-28T10:51:53.349Z,43.98
2023-03-28T10:52:53.432Z,41.44
2023-03-28T10:53:53.503Z,41.12
2023-03-28T10:54:53.563Z,42.06
2023-03-28T10:55:53.666Z,42.45
2023-03-28T10:56:53.748Z,42.33
2023-03-28T10:57:53.832Z,43.04
2023-03-28T10:58:53.854Z,42.61
2023-03-28T10:59:53.931Z,42.10
2023-03-28T11:00:53.996Z,42.10
2023-03-28T11:01:54.130Z,41.51
2023-03-28T11:02:54.229Z,41.51
2023-03-28T11:03:54.307Z,41.20
2023-03-28T11:04:54.309Z,40.71
2023-03-28T11:06:08.121Z,40.92
2023-03-28T11:06:54.472Z,41.63
2023-03-28T11:07:54.596Z,41.77
2023-03-28T11:08:54.641Z,42.00
2023-03-28T11:09:54.719Z,42.38
2023-03-28T11:10:54.776Z,42.59
2023-03-28T11:11:54.861Z,43.82
2023-03-28T11:12:56.627Z,42.18
2023-03-28T11:13:55.010Z,42.59
2023-03-28T11:14:55.080Z,41.56
2023-03-28T11:15:55.225Z,42.38
2023-03-28T11:16:55.281Z,43.30
2023-03-28T11:17:55.437Z,43.22
2023-03-28T11:18:55.449Z,44.43
2023-03-28T11:19:55.540Z,43.20
2023-03-28T11:20:55.624Z,43.90
2023-03-28T11:21:55.724Z,43.88
2023-03-28T11:23:05.098Z,42.77
2023-03-28T11:23:55.898Z,43.77
2023-03-28T11:24:55.966Z,42.06
2023-03-28T11:25:56.021Z,43.30
2023-03-28T11:27:08.653Z,43.41
2023-03-28T11:27:56.222Z,41.97
2023-03-28T11:28:56.269Z,42.38
2023-03-28T11:29:56.359Z,43.71
2023-03-28T11:30:56.445Z,44.22
2023-03-28T11:31:56.708Z,42.71
2023-03-28T11:32:56.670Z,41.50
2023-03-28T11:33:56.691Z,44.49
2023-03-28T11:34:56.784Z,43.98
2023-03-28T11:35:56.925Z,44.49
2023-03-28T11:36:56.953Z,43.88
2023-03-28T11:37:57.060Z,44.06
2023-03-28T11:38:57.116Z,44.67
2023-03-28T11:39:57.207Z,45.06
2023-03-28T11:40:57.398Z,44.12
2023-03-28T11:41:57.398Z,44.71
2023-03-28T11:42:57.480Z,45.31
2023-03-28T11:43:57.549Z,43.37
2023-03-28T11:44:57.614Z,43.98
2023-03-28T11:45:57.711Z,44.06
2023-03-28T11:46:57.777Z,42.73
2023-03-28T11:47:57.943Z,41.82
2023-03-28T11:48:57.924Z,42.63
2023-03-28T11:49:58.006Z,41.41
2023-03-28T11:50:58.283Z,41.10
2023-03-28T11:51:58.165Z,41.69
2023-03-28T11:52:58.247Z,41.28
2023-03-28T11:53:58.341Z,39.84
2023-03-28T11:54:58.381Z,40.94
2023-03-28T11:55:58.753Z,41.66
2023-03-28T11:56:58.663Z,43.18
2023-03-28T11:57:58.662Z,43.79
2023-03-28T11:58:58.710Z,41.35
2023-03-28T11:59:58.810Z,40.76
2023-03-28T12:00:59.112Z,42.43
2023-03-28T12:01:58.987Z,41.18
2023-03-28T12:02:59.186Z,43.76
2023-03-28T12:03:59.334Z,43.96
2023-03-28T12:04:59.235Z,45.00
2023-03-28T12:06:04.577Z,47.53
2023-03-28T12:07:02.936Z,43.65
2023-03-28T12:07:59.502Z,43.77
2023-03-28T12:08:59.574Z,44.98
2023-03-28T12:09:59.655Z,44.90
2023-03-28T12:10:59.940Z,45.39
2023-03-28T12:11:59.836Z,44.78
2023-03-28T12:12:59.940Z,44.55
2023-03-28T12:14:11.498Z,42.94
2023-03-28T12:15:00.115Z,45.70
2023-03-28T12:16:00.212Z,43.40
2023-03-28T12:17:00.366Z,44.23
2023-03-28T12:18:00.411Z,42.38
2023-03-28T12:19:00.448Z,41.99
2023-03-28T12:20:00.557Z,45.15
2023-03-28T12:21:01.101Z,44.64
2023-03-28T12:22:00.720Z,46.68
2023-03-28T12:23:00.811Z,46.25
2023-03-28T12:24:00.856Z,46.07
2023-03-28T12:25:00.932Z,46.78
2023-03-28T12:26:01.033Z,46.19
2023-03-28T12:27:01.119Z,47.40
2023-03-28T12:28:01.234Z,43.44
2023-03-28T12:29:01.247Z,46.31
2023-03-28T12:30:01.319Z,47.42
2023-03-28T12:31:01.541Z,47.93
2023-03-28T12:32:01.482Z,46.09
2023-03-28T12:33:01.635Z,46.31
2023-03-28T12:34:01.637Z,48.24
2023-03-28T12:35:01.711Z,47.07
2023-03-28T12:36:01.803Z,45.08
2023-03-28T12:37:01.880Z,43.94
2023-03-28T12:38:02.111Z,45.98
2023-03-28T12:39:02.024Z,46.37
2023-03-28T12:40:02.131Z,45.22
2023-03-28T12:41:02.561Z,43.88
2023-03-28T12:42:02.287Z,42.96
2023-03-28T12:43:02.369Z,42.12
2023-03-28T12:44:02.434Z,42.96
2023-03-28T12:45:02.482Z,42.38
2023-03-28T12:46:02.648Z,43.20
2023-03-28T12:47:02.672Z,43.38
2023-03-28T12:48:02.827Z,42.47
2023-03-28T12:49:02.862Z,42.67
2023-03-28T12:50:02.980Z,42.49
2023-03-28T12:51:03.256Z,43.00
2023-03-28T12:52:03.119Z,43.53
2023-03-28T12:53:03.193Z,43.43
2023-03-28T12:54:03.259Z,43.53